Mayer, AZ

5:50 PM MST on February 19, 2017 (GMT -0700)
Sugar Shack | | Change Station

Elev 4472 ft 34.39 °N, 112.24 °W | Updated 33 seconds ago

Overcast
Overcast
44.8 °F
Feels Like 45 °F
N
2.7
Wind Variable Wind from South

Today
High -- | Low -- °F
--% Chance of Precip.
Yesterday
High -- | Low -- °F
Precip. -- in
Pressure 29.90 in
Visibility 10.0 miles
Clouds Scattered Clouds 1900 ft
Mostly Cloudy 4300 ft
Overcast 5000 ft
Windchill 45 °F
Dew Point 44 °F
Humidity 99%
Rainfall 0.70 in
Snow Depth Not available.
7:09 AM 6:16 PM
Last Quarter, 39% visible
METAR KPRC 192353Z 20004KT 10SM SCT019 BKN043 OVC050 07/05 A2996 RMK AO2 RAE50 SLP124 P0002 60002 T00670050 10089 20061 53016
Pressure 29.90 in
Visibility 10.0 miles
Clouds Scattered Clouds 1900 ft
Mostly Cloudy 4300 ft
Overcast 5000 ft
Windchill 45 °F
Dew Point 44 °F
Humidity 99%
Rainfall 0.70 in
Snow Depth Not available.
7:09 AM 6:16 PM
Last Quarter, 39% visible
METAR KPRC 192353Z 20004KT 10SM SCT019 BKN043 OVC050 07/05 A2996 RMK AO2 RAE50 SLP124 P0002 60002 T00670050 10089 20061 53016

Get Your Daily Forecast Email!

Thanks for signing up!

Be on the lookout for a verification email in your inbox.

You'll start receiving the daily forecast at 8 AM.

×

10-Day Weather Forecast

Almanac

Astronomy

Feb. 19, 2017 Rise Set
Actual Time
Civil Twilight
Nautical Twilight
Astronomical Twilight
Moon
Length of Visible Light
Length of Day
Tomorrow will be .
, % of the Moon is Illuminated

Today's Extremes

State Highs State Lows

Community

WunderPhotos

Upload Photos

1,962,540 photos uploaded!

WunderBlog® & News

Nearby

Air Quality

  Air Quality AQ Index Pollutant
Not available.

Snow Depth

Station Depth Elevation

Earthquake Activity

City Distance Mag. Time & Date
Minimum magnitude displayed is 2.5.

Coastal Water Temperatures

Place Temperature

Stations

Nearby Weather Stations

Station Location Temp. Windchill Dew Point Humidity Wind Precip. Elev Updated Type
                   

Watches & Warnings

There are currently no watches in effect.